Barksdale Air Force Base
KBAD : now visible

Airfield :











YOU CAN JOIN US ON...

 
LOGIN :

Register | Disclaimer

   EN    FR    IT 

 









Legend :    VFR   Marginal VFR   IFR   Intensive IFR   Very Intensive IFR
Visi :
Ceiling :
>= 8 km
>= 3000ft
5 to 8 km
1000 to 3000 ft
1500m to 5 km
500 to 1000 ft
800 to 1500m
200 to 500 ft
< 800m
< 200 ft
Symbols :   Thunderstorms  Fog  Heavy snow  Heavy precipitations  Wind > 20 kt






- Airport Elevation : 166 ft


KBAD - Barksdale Air Force Base

CURRENT METAR :
  • 250456Z AUTO 10005KT 10SM OVC009 12/09 A3000 RMK AO2 SLP162 T01180094

EXPIRED METARs :
  • 250356Z AUTO 00000KT 10SM OVC012 12/09 A3001 RMK AO2 CIG 011 RWY15 SLP165 T01180092
  • 250256Z AUTO 11003KT 10SM OVC011 12/09 A3002 RMK AO2 SLP169 T01200092 52006

TAF TAF KBAD
Valid from the 25 at 02:00 until the 26 at 08:00 UTC


250200Z 2502/2608 35007KT 9999 OVC014 QNH3014INS
BECMG 2515/2516 12006KT 9999 OVC007 QNH3004INS
BECMG 2518/2519 12008KT 9999 OVC015 QNH3001INS TX22/2522Z TN10/2512Z
KZFW FIR / North America



MET'MAP, your aeronautical weather chart ! - Copyright ORBIFLY December 2007 - Disclaimer

ORBIFLY MET'MAP TEAM :

Programming & Development : Alexandra Zaïnal
Concept & original design : Baudouin d'Aumeries
Assistance for programming : Marc-Olivier Méhu
Technical & hardware support : Manuel Goepfert

Contact : metmap@orbifly.com




SOURCES & CREDITS :

   NOAA       Earth
Advisory